Terminal Aerodrome Forecast
Issued by NWS Lake Charles, LA

Home | Current Version | Previous Version | Text Only | Print | Product List | Glossary On
Versions: 1 2 3 4 5 6 7 8 9 10 11 12 13 14
297
FTUS44 KLCH 082320
TAFAEX
TAF
KAEX 082320Z 0900/0924 31022G30KT P6SM SKC
     FM090100 30014G22KT P6SM SKC
     FM090400 30008KT P6SM SKC
     FM091500 31014G22KT P6SM SKC=

USA.gov is the U.S. government's official web portal to all federal, state and local government web resources and services.